sensor_id;sensor_type;location;lat;lon;timestamp;P1;durP1;ratioP1;P2;durP2;ratioP2
15595;SDS011;7898;48.658;9.068;2023-08-30T00:02:18;9.35;;;8.55;;
15595;SDS011;7898;48.658;9.068;2023-08-30T00:04:45;10.50;;;9.50;;
15595;SDS011;7898;48.658;9.068;2023-08-30T00:07:12;10.95;;;9.85;;
15595;SDS011;7898;48.658;9.068;2023-08-30T00:09:39;10.70;;;9.68;;
15595;SDS011;7898;48.658;9.068;2023-08-30T00:12:06;11.15;;;9.70;;
15595;SDS011;7898;48.658;9.068;2023-08-30T00:14:33;10.38;;;9.40;;
15595;SDS011;7898;48.658;9.068;2023-08-30T00:17:01;10.45;;;9.45;;
15595;SDS011;7898;48.658;9.068;2023-08-30T00:19:28;9.98;;;8.98;;
15595;SDS011;7898;48.658;9.068;2023-08-30T00:21:55;9.18;;;8.30;;
15595;SDS011;7898;48.658;9.068;2023-08-30T00:24:23;8.90;;;8.10;;
15595;SDS011;7898;48.658;9.068;2023-08-30T00:26:50;8.60;;;7.75;;
15595;SDS011;7898;48.658;9.068;2023-08-30T00:29:17;21.45;;;9.35;;
15595;SDS011;7898;48.658;9.068;2023-08-30T00:31:43;39.30;;;9.25;;
15595;SDS011;7898;48.658;9.068;2023-08-30T00:34:12;11.00;;;9.90;;
15595;SDS011;7898;48.658;9.068;2023-08-30T00:36:39;23.42;;;10.80;;
15595;SDS011;7898;48.658;9.068;2023-08-30T00:39:06;17.55;;;9.68;;
15595;SDS011;7898;48.658;9.068;2023-08-30T00:41:33;17.92;;;9.40;;
15595;SDS011;7898;48.658;9.068;2023-08-30T00:44:00;18.17;;;9.98;;
15595;SDS011;7898;48.658;9.068;2023-08-30T00:46:28;10.23;;;8.75;;
15595;SDS011;7898;48.658;9.068;2023-08-30T00:48:55;13.13;;;9.38;;
15595;SDS011;7898;48.658;9.068;2023-08-30T00:51:24;10.32;;;8.85;;
15595;SDS011;7898;48.658;9.068;2023-08-30T00:53:51;10.70;;;9.23;;
15595;SDS011;7898;48.658;9.068;2023-08-30T00:56:21;13.00;;;10.10;;
15595;SDS011;7898;48.658;9.068;2023-08-30T00:58:48;10.45;;;9.45;;
15595;SDS011;7898;48.658;9.068;2023-08-30T01:01:16;11.10;;;10.00;;
15595;SDS011;7898;48.658;9.068;2023-08-30T01:03:43;12.20;;;10.57;;
15595;SDS011;7898;48.658;9.068;2023-08-30T01:06:10;11.57;;;9.88;;
15595;SDS011;7898;48.658;9.068;2023-08-30T01:08:40;11.05;;;9.95;;
15595;SDS011;7898;48.658;9.068;2023-08-30T01:11:10;11.27;;;10.07;;
15595;SDS011;7898;48.658;9.068;2023-08-30T01:13:44;11.95;;;10.68;;
15595;SDS011;7898;48.658;9.068;2023-08-30T01:16:16;10.20;;;9.18;;
15595;SDS011;7898;48.658;9.068;2023-08-30T01:18:45;12.52;;;11.30;;
15595;SDS011;7898;48.658;9.068;2023-08-30T01:21:14;15.85;;;14.15;;
15595;SDS011;7898;48.658;9.068;2023-08-30T01:23:54;12.98;;;11.70;;
15595;SDS011;7898;48.658;9.068;2023-08-30T01:26:28;12.00;;;10.70;;
15595;SDS011;7898;48.658;9.068;2023-08-30T01:29:04;12.60;;;9.43;;
15595;SDS011;7898;48.658;9.068;2023-08-30T01:31:32;10.63;;;9.52;;
15595;SDS011;7898;48.658;9.068;2023-08-30T01:34:00;9.73;;;8.73;;
15595;SDS011;7898;48.658;9.068;2023-08-30T01:36:29;11.73;;;8.57;;
15595;SDS011;7898;48.658;9.068;2023-08-30T01:38:57;9.85;;;8.85;;
15595;SDS011;7898;48.658;9.068;2023-08-30T01:41:24;10.82;;;9.73;;
15595;SDS011;7898;48.658;9.068;2023-08-30T01:43:53;11.13;;;9.02;;
15595;SDS011;7898;48.658;9.068;2023-08-30T01:46:23;14.40;;;10.23;;
15595;SDS011;7898;48.658;9.068;2023-08-30T01:48:50;10.70;;;9.55;;
15595;SDS011;7898;48.658;9.068;2023-08-30T01:51:18;10.77;;;9.77;;
15595;SDS011;7898;48.658;9.068;2023-08-30T01:53:45;9.15;;;8.32;;
15595;SDS011;7898;48.658;9.068;2023-08-30T01:56:13;8.63;;;7.80;;
15595;SDS011;7898;48.658;9.068;2023-08-30T01:58:40;10.32;;;8.07;;
15595;SDS011;7898;48.658;9.068;2023-08-30T02:01:07;9.45;;;8.55;;
15595;SDS011;7898;48.658;9.068;2023-08-30T02:03:36;10.15;;;8.88;;
15595;SDS011;7898;48.658;9.068;2023-08-30T02:06:04;10.30;;;9.20;;
15595;SDS011;7898;48.658;9.068;2023-08-30T02:08:35;10.40;;;9.40;;
15595;SDS011;7898;48.658;9.068;2023-08-30T02:11:08;11.65;;;9.80;;
15595;SDS011;7898;48.658;9.068;2023-08-30T02:13:39;12.05;;;10.75;;
15595;SDS011;7898;48.658;9.068;2023-08-30T02:16:09;14.75;;;11.23;;
15595;SDS011;7898;48.658;9.068;2023-08-30T02:18:38;13.68;;;12.23;;
15595;SDS011;7898;48.658;9.068;2023-08-30T02:21:06;16.88;;;14.13;;
15595;SDS011;7898;48.658;9.068;2023-08-30T02:23:33;14.73;;;13.13;;
15595;SDS011;7898;48.658;9.068;2023-08-30T02:26:00;16.10;;;11.98;;
15595;SDS011;7898;48.658;9.068;2023-08-30T02:28:28;10.77;;;9.15;;
15595;SDS011;7898;48.658;9.068;2023-08-30T02:30:55;13.75;;;7.50;;
15595;SDS011;7898;48.658;9.068;2023-08-30T02:33:22;7.53;;;6.82;;
15595;SDS011;7898;48.658;9.068;2023-08-30T02:35:50;8.38;;;7.60;;
15595;SDS011;7898;48.658;9.068;2023-08-30T02:38:18;8.20;;;7.40;;
15595;SDS011;7898;48.658;9.068;2023-08-30T02:40:45;9.45;;;8.48;;
15595;SDS011;7898;48.658;9.068;2023-08-30T02:43:12;9.00;;;8.10;;
15595;SDS011;7898;48.658;9.068;2023-08-30T02:45:39;8.13;;;7.32;;
15595;SDS011;7898;48.658;9.068;2023-08-30T02:48:06;8.07;;;7.13;;
15595;SDS011;7898;48.658;9.068;2023-08-30T02:50:33;8.45;;;7.65;;
15595;SDS011;7898;48.658;9.068;2023-08-30T02:53:01;7.88;;;7.13;;
15595;SDS011;7898;48.658;9.068;2023-08-30T02:55:30;10.90;;;9.02;;
15595;SDS011;7898;48.658;9.068;2023-08-30T02:57:57;10.27;;;9.27;;
15595;SDS011;7898;48.658;9.068;2023-08-30T03:00:24;8.88;;;7.97;;
15595;SDS011;7898;48.658;9.068;2023-08-30T03:02:51;9.13;;;7.30;;
15595;SDS011;7898;48.658;9.068;2023-08-30T03:05:18;16.35;;;7.10;;
15595;SDS011;7898;48.658;9.068;2023-08-30T03:07:45;6.15;;;5.55;;
15595;SDS011;7898;48.658;9.068;2023-08-30T03:10:14;6.78;;;6.07;;
15595;SDS011;7898;48.658;9.068;2023-08-30T03:12:41;6.30;;;5.80;;
15595;SDS011;7898;48.658;9.068;2023-08-30T03:15:08;6.38;;;5.72;;
15595;SDS011;7898;48.658;9.068;2023-08-30T03:17:35;6.27;;;5.77;;
15595;SDS011;7898;48.658;9.068;2023-08-30T03:20:02;6.57;;;5.70;;
15595;SDS011;7898;48.658;9.068;2023-08-30T03:22:30;17.17;;;5.95;;
15595;SDS011;7898;48.658;9.068;2023-08-30T03:24:57;41.25;;;7.43;;
15595;SDS011;7898;48.658;9.068;2023-08-30T03:27:29;13.35;;;6.40;;
15595;SDS011;7898;48.658;9.068;2023-08-30T03:29:56;20.98;;;7.18;;
15595;SDS011;7898;48.658;9.068;2023-08-30T03:32:23;12.60;;;6.90;;
15595;SDS011;7898;48.658;9.068;2023-08-30T03:34:50;12.93;;;7.18;;
15595;SDS011;7898;48.658;9.068;2023-08-30T03:37:17;61.97;;;7.95;;
15595;SDS011;7898;48.658;9.068;2023-08-30T03:39:44;38.28;;;7.72;;
15595;SDS011;7898;48.658;9.068;2023-08-30T03:42:10;18.33;;;7.70;;
15595;SDS011;7898;48.658;9.068;2023-08-30T03:44:39;13.65;;;7.40;;
15595;SDS011;7898;48.658;9.068;2023-08-30T03:47:06;8.50;;;7.47;;
15595;SDS011;7898;48.658;9.068;2023-08-30T03:49:33;10.15;;;7.80;;
15595;SDS011;7898;48.658;9.068;2023-08-30T03:52:00;10.97;;;7.57;;
15595;SDS011;7898;48.658;9.068;2023-08-30T03:54:26;9.55;;;7.55;;
15595;SDS011;7898;48.658;9.068;2023-08-30T03:56:53;8.27;;;7.47;;
15595;SDS011;7898;48.658;9.068;2023-08-30T03:59:20;8.85;;;7.53;;
15595;SDS011;7898;48.658;9.068;2023-08-30T04:01:50;10.02;;;7.00;;
15595;SDS011;7898;48.658;9.068;2023-08-30T04:04:17;11.38;;;7.38;;
15595;SDS011;7898;48.658;9.068;2023-08-30T04:06:44;9.55;;;7.75;;
15595;SDS011;7898;48.658;9.068;2023-08-30T04:09:11;8.95;;;8.15;;
15595;SDS011;7898;48.658;9.068;2023-08-30T04:11:37;7.82;;;7.13;;
15595;SDS011;7898;48.658;9.068;2023-08-30T04:14:04;8.68;;;7.82;;
15595;SDS011;7898;48.658;9.068;2023-08-30T04:16:32;9.33;;;8.43;;
15595;SDS011;7898;48.658;9.068;2023-08-30T04:19:00;8.82;;;7.13;;
15595;SDS011;7898;48.658;9.068;2023-08-30T04:21:27;7.10;;;5.97;;
15595;SDS011;7898;48.658;9.068;2023-08-30T04:23:54;5.95;;;5.45;;
15595;SDS011;7898;48.658;9.068;2023-08-30T04:26:20;6.60;;;6.03;;
15595;SDS011;7898;48.658;9.068;2023-08-30T04:28:47;7.25;;;6.55;;
15595;SDS011;7898;48.658;9.068;2023-08-30T04:31:14;6.82;;;6.22;;
15595;SDS011;7898;48.658;9.068;2023-08-30T04:33:41;7.82;;;7.03;;
15595;SDS011;7898;48.658;9.068;2023-08-30T04:36:09;8.75;;;6.32;;
15595;SDS011;7898;48.658;9.068;2023-08-30T04:38:36;97.72;;;10.45;;
15595;SDS011;7898;48.658;9.068;2023-08-30T04:41:03;11.73;;;6.28;;
15595;SDS011;7898;48.658;9.068;2023-08-30T04:43:30;20.77;;;7.13;;
15595;SDS011;7898;48.658;9.068;2023-08-30T04:45:57;76.00;;;8.63;;
15595;SDS011;7898;48.658;9.068;2023-08-30T04:48:24;10.80;;;7.20;;
15595;SDS011;7898;48.658;9.068;2023-08-30T04:50:57;13.07;;;6.15;;
15595;SDS011;7898;48.658;9.068;2023-08-30T04:53:26;7.90;;;7.10;;
15595;SDS011;7898;48.658;9.068;2023-08-30T04:55:53;8.03;;;7.07;;
15595;SDS011;7898;48.658;9.068;2023-08-30T04:58:20;8.93;;;8.03;;
15595;SDS011;7898;48.658;9.068;2023-08-30T05:00:47;10.25;;;8.18;;
15595;SDS011;7898;48.658;9.068;2023-08-30T05:03:14;9.93;;;8.73;;
15595;SDS011;7898;48.658;9.068;2023-08-30T05:05:44;9.73;;;8.77;;
15595;SDS011;7898;48.658;9.068;2023-08-30T05:08:11;9.63;;;8.38;;
15595;SDS011;7898;48.658;9.068;2023-08-30T05:10:40;11.70;;;8.90;;
15595;SDS011;7898;48.658;9.068;2023-08-30T05:13:08;10.00;;;8.68;;
15595;SDS011;7898;48.658;9.068;2023-08-30T05:15:35;10.10;;;9.10;;
15595;SDS011;7898;48.658;9.068;2023-08-30T05:18:02;7.45;;;6.75;;
15595;SDS011;7898;48.658;9.068;2023-08-30T05:20:30;8.30;;;7.50;;
15595;SDS011;7898;48.658;9.068;2023-08-30T05:22:56;8.32;;;7.53;;
15595;SDS011;7898;48.658;9.068;2023-08-30T05:25:23;7.28;;;6.57;;
15595;SDS011;7898;48.658;9.068;2023-08-30T05:27:52;7.43;;;6.72;;
15595;SDS011;7898;48.658;9.068;2023-08-30T05:30:19;9.18;;;7.68;;
15595;SDS011;7898;48.658;9.068;2023-08-30T05:32:46;8.18;;;7.38;;
15595;SDS011;7898;48.658;9.068;2023-08-30T05:35:12;8.75;;;7.75;;
15595;SDS011;7898;48.658;9.068;2023-08-30T05:37:40;8.73;;;7.90;;
15595;SDS011;7898;48.658;9.068;2023-08-30T05:40:07;9.15;;;7.20;;
15595;SDS011;7898;48.658;9.068;2023-08-30T05:42:35;8.25;;;7.35;;
15595;SDS011;7898;48.658;9.068;2023-08-30T05:45:03;8.45;;;7.60;;
15595;SDS011;7898;48.658;9.068;2023-08-30T05:47:31;10.47;;;7.80;;
15595;SDS011;7898;48.658;9.068;2023-08-30T05:49:58;8.75;;;7.88;;
15595;SDS011;7898;48.658;9.068;2023-08-30T05:52:25;10.45;;;8.63;;
15595;SDS011;7898;48.658;9.068;2023-08-30T05:54:52;11.30;;;8.45;;
15595;SDS011;7898;48.658;9.068;2023-08-30T05:57:19;9.75;;;8.75;;
15595;SDS011;7898;48.658;9.068;2023-08-30T05:59:47;12.60;;;10.18;;
15595;SDS011;7898;48.658;9.068;2023-08-30T06:02:15;13.00;;;10.77;;
15595;SDS011;7898;48.658;9.068;2023-08-30T06:04:42;15.52;;;11.02;;
15595;SDS011;7898;48.658;9.068;2023-08-30T06:07:09;15.70;;;12.70;;
15595;SDS011;7898;48.658;9.068;2023-08-30T06:09:36;16.65;;;14.23;;
15595;SDS011;7898;48.658;9.068;2023-08-30T06:12:04;15.60;;;12.90;;
15595;SDS011;7898;48.658;9.068;2023-08-30T06:14:31;13.35;;;11.40;;
15595;SDS011;7898;48.658;9.068;2023-08-30T06:16:58;14.55;;;12.70;;
15595;SDS011;7898;48.658;9.068;2023-08-30T06:19:27;15.73;;;12.82;;
15595;SDS011;7898;48.658;9.068;2023-08-30T06:21:54;17.13;;;13.70;;
15595;SDS011;7898;48.658;9.068;2023-08-30T06:24:21;15.68;;;13.10;;
15595;SDS011;7898;48.658;9.068;2023-08-30T06:26:48;17.42;;;13.23;;
15595;SDS011;7898;48.658;9.068;2023-08-30T06:29:15;15.07;;;13.25;;
15595;SDS011;7898;48.658;9.068;2023-08-30T06:31:42;13.80;;;12.38;;
15595;SDS011;7898;48.658;9.068;2023-08-30T06:34:10;15.55;;;13.43;;
15595;SDS011;7898;48.658;9.068;2023-08-30T06:36:38;15.75;;;13.20;;
15595;SDS011;7898;48.658;9.068;2023-08-30T06:39:05;15.13;;;12.93;;
15595;SDS011;7898;48.658;9.068;2023-08-30T06:41:32;14.15;;;12.63;;
15595;SDS011;7898;48.658;9.068;2023-08-30T06:43:59;16.15;;;12.05;;
15595;SDS011;7898;48.658;9.068;2023-08-30T06:46:26;14.75;;;12.55;;
15595;SDS011;7898;48.658;9.068;2023-08-30T06:48:53;16.55;;;14.20;;
15595;SDS011;7898;48.658;9.068;2023-08-30T06:51:20;14.90;;;12.20;;
15595;SDS011;7898;48.658;9.068;2023-08-30T06:53:48;15.23;;;12.82;;
15595;SDS011;7898;48.658;9.068;2023-08-30T06:56:15;13.95;;;12.27;;
15595;SDS011;7898;48.658;9.068;2023-08-30T06:58:42;15.48;;;12.55;;
15595;SDS011;7898;48.658;9.068;2023-08-30T07:01:09;14.77;;;11.10;;
15595;SDS011;7898;48.658;9.068;2023-08-30T07:03:36;13.07;;;11.65;;
15595;SDS011;7898;48.658;9.068;2023-08-30T07:06:04;13.18;;;11.88;;
15595;SDS011;7898;48.658;9.068;2023-08-30T07:08:31;12.73;;;11.43;;
15595;SDS011;7898;48.658;9.068;2023-08-30T07:11:00;17.02;;;11.57;;
15595;SDS011;7898;48.658;9.068;2023-08-30T07:13:27;11.98;;;10.77;;
15595;SDS011;7898;48.658;9.068;2023-08-30T07:15:54;15.70;;;11.25;;
15595;SDS011;7898;48.658;9.068;2023-08-30T07:18:21;12.07;;;10.82;;
15595;SDS011;7898;48.658;9.068;2023-08-30T07:20:48;12.77;;;10.52;;
15595;SDS011;7898;48.658;9.068;2023-08-30T07:23:15;14.02;;;10.93;;
15595;SDS011;7898;48.658;9.068;2023-08-30T07:25:42;15.15;;;11.00;;
15595;SDS011;7898;48.658;9.068;2023-08-30T07:28:10;13.00;;;10.80;;
15595;SDS011;7898;48.658;9.068;2023-08-30T07:30:37;11.23;;;10.02;;
15595;SDS011;7898;48.658;9.068;2023-08-30T07:33:04;11.15;;;9.93;;
15595;SDS011;7898;48.658;9.068;2023-08-30T07:35:31;10.98;;;9.82;;
15595;SDS011;7898;48.658;9.068;2023-08-30T07:37:58;10.55;;;9.52;;
15595;SDS011;7898;48.658;9.068;2023-08-30T07:40:25;12.10;;;10.90;;
15595;SDS011;7898;48.658;9.068;2023-08-30T07:42:54;16.52;;;10.77;;
15595;SDS011;7898;48.658;9.068;2023-08-30T07:45:22;12.32;;;10.68;;
15595;SDS011;7898;48.658;9.068;2023-08-30T07:47:49;15.20;;;9.93;;
15595;SDS011;7898;48.658;9.068;2023-08-30T07:50:16;12.00;;;10.70;;
15595;SDS011;7898;48.658;9.068;2023-08-30T07:52:43;11.50;;;10.30;;
15595;SDS011;7898;48.658;9.068;2023-08-30T07:55:12;10.45;;;9.00;;
15595;SDS011;7898;48.658;9.068;2023-08-30T07:57:39;9.55;;;8.65;;
15595;SDS011;7898;48.658;9.068;2023-08-30T08:00:06;9.90;;;8.90;;
15595;SDS011;7898;48.658;9.068;2023-08-30T08:02:35;10.57;;;9.07;;
15595;SDS011;7898;48.658;9.068;2023-08-30T08:05:03;9.57;;;8.65;;
15595;SDS011;7898;48.658;9.068;2023-08-30T08:07:30;10.82;;;8.32;;
15595;SDS011;7898;48.658;9.068;2023-08-30T08:09:57;11.85;;;9.13;;
15595;SDS011;7898;48.658;9.068;2023-08-30T08:12:25;10.90;;;8.15;;
15595;SDS011;7898;48.658;9.068;2023-08-30T08:14:52;9.63;;;8.70;;
15595;SDS011;7898;48.658;9.068;2023-08-30T08:17:19;11.25;;;9.57;;
15595;SDS011;7898;48.658;9.068;2023-08-30T08:19:47;10.10;;;9.05;;
15595;SDS011;7898;48.658;9.068;2023-08-30T08:22:14;10.25;;;9.25;;
15595;SDS011;7898;48.658;9.068;2023-08-30T08:24:41;9.82;;;8.68;;
15595;SDS011;7898;48.658;9.068;2023-08-30T08:27:15;8.65;;;7.60;;
15595;SDS011;7898;48.658;9.068;2023-08-30T08:29:42;9.77;;;8.60;;
15595;SDS011;7898;48.658;9.068;2023-08-30T08:32:08;9.27;;;8.30;;
15595;SDS011;7898;48.658;9.068;2023-08-30T08:34:35;9.90;;;8.88;;
15595;SDS011;7898;48.658;9.068;2023-08-30T08:37:04;8.07;;;7.28;;
15595;SDS011;7898;48.658;9.068;2023-08-30T08:39:32;8.20;;;7.40;;
15595;SDS011;7898;48.658;9.068;2023-08-30T08:41:59;11.07;;;7.47;;
15595;SDS011;7898;48.658;9.068;2023-08-30T08:44:28;10.20;;;8.30;;
15595;SDS011;7898;48.658;9.068;2023-08-30T08:46:58;8.27;;;7.47;;
15595;SDS011;7898;48.658;9.068;2023-08-30T08:49:26;8.95;;;8.05;;
15595;SDS011;7898;48.658;9.068;2023-08-30T08:51:54;8.95;;;8.05;;
15595;SDS011;7898;48.658;9.068;2023-08-30T08:54:22;8.00;;;7.20;;
15595;SDS011;7898;48.658;9.068;2023-08-30T08:56:50;8.27;;;7.47;;
15595;SDS011;7898;48.658;9.068;2023-08-30T08:59:16;8.70;;;7.80;;
15595;SDS011;7898;48.658;9.068;2023-08-30T09:01:45;10.43;;;8.02;;
15595;SDS011;7898;48.658;9.068;2023-08-30T09:04:12;8.40;;;7.70;;
15595;SDS011;7898;48.658;9.068;2023-08-30T09:06:39;8.15;;;7.28;;
15595;SDS011;7898;48.658;9.068;2023-08-30T09:09:08;7.82;;;7.05;;
15595;SDS011;7898;48.658;9.068;2023-08-30T09:11:37;7.90;;;7.20;;
15595;SDS011;7898;48.658;9.068;2023-08-30T09:14:04;6.97;;;6.25;;
15595;SDS011;7898;48.658;9.068;2023-08-30T09:16:31;8.00;;;6.90;;
15595;SDS011;7898;48.658;9.068;2023-08-30T09:18:58;6.82;;;6.20;;
15595;SDS011;7898;48.658;9.068;2023-08-30T09:21:25;6.68;;;6.00;;
15595;SDS011;7898;48.658;9.068;2023-08-30T09:23:56;7.05;;;5.40;;
15595;SDS011;7898;48.658;9.068;2023-08-30T09:26:24;6.97;;;6.25;;
15595;SDS011;7898;48.658;9.068;2023-08-30T09:28:54;7.40;;;6.70;;
15595;SDS011;7898;48.658;9.068;2023-08-30T09:31:21;6.70;;;6.10;;
15595;SDS011;7898;48.658;9.068;2023-08-30T09:33:48;6.47;;;5.85;;
15595;SDS011;7898;48.658;9.068;2023-08-30T09:36:15;6.53;;;5.93;;
15595;SDS011;7898;48.658;9.068;2023-08-30T09:38:47;6.95;;;5.47;;
15595;SDS011;7898;48.658;9.068;2023-08-30T09:41:15;8.68;;;6.28;;
15595;SDS011;7898;48.658;9.068;2023-08-30T09:43:42;6.97;;;5.65;;
15595;SDS011;7898;48.658;9.068;2023-08-30T09:46:11;5.63;;;5.13;;
15595;SDS011;7898;48.658;9.068;2023-08-30T09:48:38;7.05;;;5.30;;
15595;SDS011;7898;48.658;9.068;2023-08-30T09:51:07;6.00;;;4.90;;
15595;SDS011;7898;48.658;9.068;2023-08-30T09:53:37;6.13;;;5.53;;
15595;SDS011;7898;48.658;9.068;2023-08-30T09:56:10;6.20;;;5.60;;
15595;SDS011;7898;48.658;9.068;2023-08-30T09:58:40;6.82;;;5.60;;
15595;SDS011;7898;48.658;9.068;2023-08-30T10:01:08;5.53;;;5.03;;
15595;SDS011;7898;48.658;9.068;2023-08-30T10:03:37;6.47;;;5.88;;
15595;SDS011;7898;48.658;9.068;2023-08-30T10:06:05;7.18;;;5.72;;
15595;SDS011;7898;48.658;9.068;2023-08-30T10:08:33;5.45;;;4.93;;
15595;SDS011;7898;48.658;9.068;2023-08-30T10:11:02;5.03;;;4.47;;
15595;SDS011;7898;48.658;9.068;2023-08-30T10:13:29;5.47;;;4.97;;
15595;SDS011;7898;48.658;9.068;2023-08-30T10:15:58;5.53;;;5.03;;
15595;SDS011;7898;48.658;9.068;2023-08-30T10:18:29;4.85;;;4.35;;
15595;SDS011;7898;48.658;9.068;2023-08-30T10:20:59;4.88;;;4.45;;
15595;SDS011;7898;48.658;9.068;2023-08-30T10:23:30;5.00;;;3.17;;
15595;SDS011;7898;48.658;9.068;2023-08-30T10:25:58;3.45;;;3.15;;
15595;SDS011;7898;48.658;9.068;2023-08-30T10:28:26;4.63;;;3.50;;
15595;SDS011;7898;48.658;9.068;2023-08-30T10:30:54;4.75;;;3.38;;
15595;SDS011;7898;48.658;9.068;2023-08-30T10:33:21;4.35;;;3.70;;
15595;SDS011;7898;48.658;9.068;2023-08-30T10:35:52;3.72;;;3.42;;
15595;SDS011;7898;48.658;9.068;2023-08-30T10:38:24;4.05;;;3.58;;
15595;SDS011;7898;48.658;9.068;2023-08-30T10:40:53;3.50;;;3.20;;
15595;SDS011;7898;48.658;9.068;2023-08-30T10:43:27;3.58;;;3.28;;
15595;SDS011;7898;48.658;9.068;2023-08-30T10:46:01;5.28;;;3.30;;
15595;SDS011;7898;48.658;9.068;2023-08-30T10:48:35;4.82;;;4.18;;
15595;SDS011;7898;48.658;9.068;2023-08-30T10:51:05;4.35;;;3.90;;
15595;SDS011;7898;48.658;9.068;2023-08-30T10:53:42;4.95;;;3.67;;
15595;SDS011;7898;48.658;9.068;2023-08-30T10:56:09;4.75;;;3.72;;
15595;SDS011;7898;48.658;9.068;2023-08-30T10:58:43;4.00;;;3.60;;
15595;SDS011;7898;48.658;9.068;2023-08-30T11:01:10;4.75;;;3.95;;
15595;SDS011;7898;48.658;9.068;2023-08-30T11:03:38;4.22;;;3.60;;
15595;SDS011;7898;48.658;9.068;2023-08-30T11:06:09;4.10;;;3.70;;
15595;SDS011;7898;48.658;9.068;2023-08-30T11:08:39;6.55;;;3.13;;
15595;SDS011;7898;48.658;9.068;2023-08-30T11:11:08;3.95;;;3.65;;
15595;SDS011;7898;48.658;9.068;2023-08-30T11:13:37;4.97;;;3.55;;
15595;SDS011;7898;48.658;9.068;2023-08-30T11:16:04;3.30;;;3.00;;
15595;SDS011;7898;48.658;9.068;2023-08-30T11:18:33;4.20;;;3.80;;
15595;SDS011;7898;48.658;9.068;2023-08-30T11:21:04;3.72;;;3.35;;
15595;SDS011;7898;48.658;9.068;2023-08-30T11:23:34;3.42;;;3.13;;
15595;SDS011;7898;48.658;9.068;2023-08-30T11:26:01;3.70;;;3.40;;
15595;SDS011;7898;48.658;9.068;2023-08-30T11:28:29;3.80;;;3.50;;
15595;SDS011;7898;48.658;9.068;2023-08-30T11:30:56;4.85;;;3.30;;
15595;SDS011;7898;48.658;9.068;2023-08-30T11:33:23;4.60;;;3.40;;
15595;SDS011;7898;48.658;9.068;2023-08-30T11:35:50;4.13;;;2.63;;
15595;SDS011;7898;48.658;9.068;2023-08-30T11:38:18;3.55;;;3.25;;
15595;SDS011;7898;48.658;9.068;2023-08-30T11:40:49;3.50;;;3.20;;
15595;SDS011;7898;48.658;9.068;2023-08-30T11:43:17;4.93;;;3.25;;
15595;SDS011;7898;48.658;9.068;2023-08-30T11:45:45;5.50;;;3.88;;
15595;SDS011;7898;48.658;9.068;2023-08-30T11:48:12;4.03;;;2.00;;
15595;SDS011;7898;48.658;9.068;2023-08-30T11:50:39;1.70;;;1.60;;
15595;SDS011;7898;48.658;9.068;2023-08-30T11:53:08;1.55;;;1.45;;
15595;SDS011;7898;48.658;9.068;2023-08-30T11:55:36;3.50;;;2.05;;
15595;SDS011;7898;48.658;9.068;2023-08-30T11:58:05;2.25;;;2.10;;
15595;SDS011;7898;48.658;9.068;2023-08-30T12:00:34;2.72;;;2.53;;
15595;SDS011;7898;48.658;9.068;2023-08-30T12:03:03;3.20;;;2.90;;
15595;SDS011;7898;48.658;9.068;2023-08-30T12:05:32;9.52;;;4.03;;
15595;SDS011;7898;48.658;9.068;2023-08-30T12:08:00;4.65;;;4.25;;
15595;SDS011;7898;48.658;9.068;2023-08-30T12:10:28;4.35;;;3.95;;
15595;SDS011;7898;48.658;9.068;2023-08-30T12:12:57;4.63;;;4.18;;
15595;SDS011;7898;48.658;9.068;2023-08-30T12:15:25;5.78;;;4.55;;
15595;SDS011;7898;48.658;9.068;2023-08-30T12:17:53;5.05;;;4.50;;
15595;SDS011;7898;48.658;9.068;2023-08-30T12:20:21;5.75;;;5.22;;
15595;SDS011;7898;48.658;9.068;2023-08-30T12:22:48;4.88;;;4.28;;
15595;SDS011;7898;48.658;9.068;2023-08-30T12:25:16;5.60;;;4.32;;
15595;SDS011;7898;48.658;9.068;2023-08-30T12:27:44;4.78;;;4.38;;
15595;SDS011;7898;48.658;9.068;2023-08-30T12:30:12;4.57;;;4.18;;
15595;SDS011;7898;48.658;9.068;2023-08-30T12:32:40;5.55;;;4.07;;
15595;SDS011;7898;48.658;9.068;2023-08-30T12:35:08;4.45;;;4.03;;
15595;SDS011;7898;48.658;9.068;2023-08-30T12:37:35;4.00;;;3.60;;
15595;SDS011;7898;48.658;9.068;2023-08-30T12:40:02;3.92;;;3.53;;
15595;SDS011;7898;48.658;9.068;2023-08-30T12:42:31;3.50;;;3.20;;
15595;SDS011;7898;48.658;9.068;2023-08-30T12:44:58;5.03;;;4.00;;
15595;SDS011;7898;48.658;9.068;2023-08-30T12:47:25;4.07;;;3.78;;
15595;SDS011;7898;48.658;9.068;2023-08-30T12:49:53;4.70;;;4.30;;
15595;SDS011;7898;48.658;9.068;2023-08-30T12:52:20;4.38;;;3.75;;
15595;SDS011;7898;48.658;9.068;2023-08-30T12:54:47;5.75;;;3.83;;
15595;SDS011;7898;48.658;9.068;2023-08-30T12:57:14;4.70;;;4.00;;
15595;SDS011;7898;48.658;9.068;2023-08-30T12:59:41;5.38;;;4.53;;
15595;SDS011;7898;48.658;9.068;2023-08-30T13:02:08;4.97;;;4.57;;
15595;SDS011;7898;48.658;9.068;2023-08-30T13:04:35;5.63;;;4.25;;
15595;SDS011;7898;48.658;9.068;2023-08-30T13:07:05;4.38;;;3.97;;
15595;SDS011;7898;48.658;9.068;2023-08-30T13:09:32;4.65;;;4.25;;
15595;SDS011;7898;48.658;9.068;2023-08-30T13:11:59;4.63;;;4.05;;
15595;SDS011;7898;48.658;9.068;2023-08-30T13:14:26;4.88;;;4.15;;
15595;SDS011;7898;48.658;9.068;2023-08-30T13:16:52;4.75;;;4.35;;
15595;SDS011;7898;48.658;9.068;2023-08-30T13:19:19;4.00;;;3.60;;
15595;SDS011;7898;48.658;9.068;2023-08-30T13:21:46;5.28;;;3.38;;
15595;SDS011;7898;48.658;9.068;2023-08-30T13:24:15;4.05;;;3.65;;
15595;SDS011;7898;48.658;9.068;2023-08-30T13:26:42;4.88;;;3.83;;
15595;SDS011;7898;48.658;9.068;2023-08-30T13:29:10;4.47;;;4.00;;
15595;SDS011;7898;48.658;9.068;2023-08-30T13:31:37;8.15;;;4.80;;
15595;SDS011;7898;48.658;9.068;2023-08-30T13:34:03;4.15;;;3.70;;
15595;SDS011;7898;48.658;9.068;2023-08-30T13:36:30;3.63;;;3.33;;
15595;SDS011;7898;48.658;9.068;2023-08-30T13:38:57;3.83;;;3.30;;
15595;SDS011;7898;48.658;9.068;2023-08-30T13:41:26;3.67;;;2.90;;
15595;SDS011;7898;48.658;9.068;2023-08-30T13:43:53;3.67;;;3.38;;
15595;SDS011;7898;48.658;9.068;2023-08-30T13:46:20;2.97;;;2.70;;
15595;SDS011;7898;48.658;9.068;2023-08-30T13:48:47;5.05;;;3.00;;
15595;SDS011;7898;48.658;9.068;2023-08-30T13:51:14;3.70;;;2.50;;
15595;SDS011;7898;48.658;9.068;2023-08-30T13:53:40;3.30;;;2.60;;
15595;SDS011;7898;48.658;9.068;2023-08-30T13:56:07;2.97;;;2.35;;
15595;SDS011;7898;48.658;9.068;2023-08-30T13:58:36;2.83;;;2.53;;
15595;SDS011;7898;48.658;9.068;2023-08-30T14:01:03;2.80;;;2.60;;
15595;SDS011;7898;48.658;9.068;2023-08-30T14:03:30;2.13;;;1.92;;
15595;SDS011;7898;48.658;9.068;2023-08-30T14:05:57;2.20;;;2.00;;
15595;SDS011;7898;48.658;9.068;2023-08-30T14:08:24;3.30;;;2.10;;
15595;SDS011;7898;48.658;9.068;2023-08-30T14:10:51;2.95;;;2.20;;
15595;SDS011;7898;48.658;9.068;2023-08-30T14:13:19;2.50;;;2.20;;
15595;SDS011;7898;48.658;9.068;2023-08-30T14:15:47;2.72;;;2.42;;
15595;SDS011;7898;48.658;9.068;2023-08-30T14:18:14;2.42;;;2.22;;
15595;SDS011;7898;48.658;9.068;2023-08-30T14:20:42;2.35;;;2.15;;
15595;SDS011;7898;48.658;9.068;2023-08-30T14:23:09;2.58;;;2.20;;
15595;SDS011;7898;48.658;9.068;2023-08-30T14:25:37;2.85;;;2.30;;
15595;SDS011;7898;48.658;9.068;2023-08-30T14:28:04;2.30;;;2.10;;
15595;SDS011;7898;48.658;9.068;2023-08-30T14:30:31;2.70;;;1.88;;
15595;SDS011;7898;48.658;9.068;2023-08-30T14:32:59;2.88;;;2.03;;
15595;SDS011;7898;48.658;9.068;2023-08-30T14:35:26;3.13;;;2.05;;
15595;SDS011;7898;48.658;9.068;2023-08-30T14:37:54;2.65;;;2.45;;
15595;SDS011;7898;48.658;9.068;2023-08-30T14:40:21;2.95;;;2.67;;
15595;SDS011;7898;48.658;9.068;2023-08-30T14:42:48;3.13;;;1.92;;
15595;SDS011;7898;48.658;9.068;2023-08-30T14:45:15;3.10;;;2.60;;
15595;SDS011;7898;48.658;9.068;2023-08-30T14:47:42;2.53;;;2.33;;
15595;SDS011;7898;48.658;9.068;2023-08-30T14:50:11;2.67;;;2.47;;
15595;SDS011;7898;48.658;9.068;2023-08-30T14:52:38;3.45;;;2.30;;
15595;SDS011;7898;48.658;9.068;2023-08-30T14:55:05;3.35;;;2.95;;
15595;SDS011;7898;48.658;9.068;2023-08-30T14:57:33;2.83;;;2.63;;